Aviation Digital Data Service (ADDS)

Output produced by METARs form (1701 UTC 16 June 2019)
found at http://www.aviationweather.gov/metar/data/
 
Forecast for: SPJL (JULIACA , PE)
Text: TAF SPJL 161115Z 1612/1712 VRB05KT 9999 BKN015 TX18/1619Z TNM02/1710Z
Forecast period: 1200 to 1800 UTC 16 June 2019
Forecast type: FROM: standard forecast or significant change
Winds: variable direction winds at 6 MPH (5 knots; 2.6 m/s)
Visibility: 6 or more miles 10+ km)
Ceiling: 1500 feet AGL
Clouds: broken clouds at 1500 feet AGL
Weather: no significant weather forecast for this period
Text: FM161800 19008KT 9000 BKN010 BKN080
Forecast period: 1800 UTC 16 June 2019 to 1100 UTC 17 June 2019
Forecast type: FROM: standard forecast or significant change
Winds: from the S (190 degrees) at 9 MPH (8 knots; 4.1 m/s)
Visibility: 6 miles (9 km)
Ceiling: 1000 feet AGL
Clouds: broken clouds at 1000 feet AGL
broken clouds at 8000 feet AGL
Weather: no significant weather forecast for this period
Text: FM171100 VRB05KT 9999 SCT015
Forecast period: 1100 to 1200 UTC 17 June 2019
Forecast type: FROM: standard forecast or significant change
Winds: variable direction winds at 6 MPH (5 knots; 2.6 m/s)
Visibility: 6 or more miles 10+ km)
Ceiling: at least 12,000 feet AGL
Clouds: scattered clouds at 1500 feet AGL
Weather: no significant weather forecast for this period